< < Back
Terminal Aerodrome Forecast


Current Version              Previous Versions:   1  2  3  4  5  6  7  8  9  

Terminal Aerodrome Forecast

234
FTUS42 KFFC 061735
TAFPDK
TAF
KPDK 061735Z 0618/0718 06005KT P6SM BKN150 BKN250
     FM070000 35005KT P6SM SCT120 SCT250
     FM071500 33011KT P6SM SKC=

Latest METAR

657
SAUS70 KWBC 071000 RRC
MTRPDK
METAR KPDK 070953Z AUTO 12003KT 10SM CLR M02/M06 A3013 RMK AO2 SLP216
T10221056


USA.gov is the U.S. government's official web portal to all federal, state and local government web resources and services.